sensor_id;sensor_type;location;lat;lon;timestamp;P1;durP1;ratioP1;P2;durP2;ratioP2
49860;SDS011;35761;48.826;9.238;2022-09-09T00:00:25;8.82;;;2.50;;
49860;SDS011;35761;48.826;9.238;2022-09-09T00:02:59;8.80;;;2.53;;
49860;SDS011;35761;48.826;9.238;2022-09-09T00:05:36;12.57;;;2.72;;
49860;SDS011;35761;48.826;9.238;2022-09-09T00:08:13;9.65;;;2.63;;
49860;SDS011;35761;48.826;9.238;2022-09-09T00:10:49;13.13;;;3.08;;
49860;SDS011;35761;48.826;9.238;2022-09-09T00:13:28;11.98;;;2.92;;
49860;SDS011;35761;48.826;9.238;2022-09-09T00:16:03;13.70;;;3.05;;
49860;SDS011;35761;48.826;9.238;2022-09-09T00:18:45;10.75;;;3.42;;
49860;SDS011;35761;48.826;9.238;2022-09-09T00:21:28;7.00;;;2.65;;
49860;SDS011;35761;48.826;9.238;2022-09-09T00:24:04;8.27;;;2.58;;
49860;SDS011;35761;48.826;9.238;2022-09-09T00:26:41;9.80;;;2.95;;
49860;SDS011;35761;48.826;9.238;2022-09-09T00:29:14;9.52;;;2.83;;
49860;SDS011;35761;48.826;9.238;2022-09-09T00:31:50;9.52;;;2.72;;
49860;SDS011;35761;48.826;9.238;2022-09-09T00:34:27;8.68;;;2.88;;
49860;SDS011;35761;48.826;9.238;2022-09-09T00:36:57;11.85;;;2.90;;
49860;SDS011;35761;48.826;9.238;2022-09-09T00:39:27;9.40;;;2.72;;
49860;SDS011;35761;48.826;9.238;2022-09-09T00:42:04;6.93;;;2.38;;
49860;SDS011;35761;48.826;9.238;2022-09-09T00:44:51;8.98;;;2.97;;
49860;SDS011;35761;48.826;9.238;2022-09-09T00:47:30;6.00;;;2.10;;
49860;SDS011;35761;48.826;9.238;2022-09-09T00:50:20;7.18;;;2.13;;
49860;SDS011;35761;48.826;9.238;2022-09-09T00:53:02;8.32;;;2.50;;
49860;SDS011;35761;48.826;9.238;2022-09-09T00:55:45;11.73;;;3.15;;
49860;SDS011;35761;48.826;9.238;2022-09-09T00:58:20;10.23;;;2.47;;
49860;SDS011;35761;48.826;9.238;2022-09-09T01:00:50;8.32;;;1.95;;
49860;SDS011;35761;48.826;9.238;2022-09-09T01:03:26;9.05;;;2.63;;
49860;SDS011;35761;48.826;9.238;2022-09-09T01:06:11;6.70;;;2.10;;
49860;SDS011;35761;48.826;9.238;2022-09-09T01:11:47;8.43;;;2.15;;
49860;SDS011;35761;48.826;9.238;2022-09-09T01:14:32;7.28;;;2.08;;
49860;SDS011;35761;48.826;9.238;2022-09-09T01:17:12;5.15;;;2.00;;
49860;SDS011;35761;48.826;9.238;2022-09-09T01:19:55;8.88;;;2.08;;
49860;SDS011;35761;48.826;9.238;2022-09-09T01:22:43;9.30;;;2.28;;
49860;SDS011;35761;48.826;9.238;2022-09-09T01:25:22;12.80;;;2.20;;
49860;SDS011;35761;48.826;9.238;2022-09-09T01:28:09;7.40;;;2.17;;
49860;SDS011;35761;48.826;9.238;2022-09-09T01:30:45;5.53;;;1.55;;
49860;SDS011;35761;48.826;9.238;2022-09-09T01:33:16;3.28;;;1.40;;
49860;SDS011;35761;48.826;9.238;2022-09-09T01:35:47;7.22;;;1.75;;
49860;SDS011;35761;48.826;9.238;2022-09-09T01:38:22;5.47;;;1.30;;
49860;SDS011;35761;48.826;9.238;2022-09-09T01:40:52;6.97;;;1.60;;
49860;SDS011;35761;48.826;9.238;2022-09-09T01:43:29;5.20;;;1.80;;
49860;SDS011;35761;48.826;9.238;2022-09-09T01:45:59;5.82;;;1.73;;
49860;SDS011;35761;48.826;9.238;2022-09-09T01:48:31;15.27;;;2.28;;
49860;SDS011;35761;48.826;9.238;2022-09-09T01:51:07;5.60;;;1.90;;
49860;SDS011;35761;48.826;9.238;2022-09-09T01:53:37;4.43;;;1.52;;
49860;SDS011;35761;48.826;9.238;2022-09-09T01:56:44;6.78;;;1.70;;
49860;SDS011;35761;48.826;9.238;2022-09-09T01:59:28;6.47;;;1.85;;
49860;SDS011;35761;48.826;9.238;2022-09-09T02:02:29;11.88;;;2.08;;
49860;SDS011;35761;48.826;9.238;2022-09-09T02:05:17;5.18;;;1.70;;
49860;SDS011;35761;48.826;9.238;2022-09-09T02:08:00;5.90;;;1.63;;
49860;SDS011;35761;48.826;9.238;2022-09-09T02:10:45;11.25;;;1.70;;
49860;SDS011;35761;48.826;9.238;2022-09-09T02:13:35;8.70;;;1.63;;
49860;SDS011;35761;48.826;9.238;2022-09-09T02:16:12;4.32;;;1.45;;
49860;SDS011;35761;48.826;9.238;2022-09-09T02:18:48;5.95;;;1.70;;
49860;SDS011;35761;48.826;9.238;2022-09-09T02:21:29;6.25;;;1.50;;
49860;SDS011;35761;48.826;9.238;2022-09-09T02:24:02;3.92;;;1.30;;
49860;SDS011;35761;48.826;9.238;2022-09-09T02:26:42;7.82;;;1.70;;
49860;SDS011;35761;48.826;9.238;2022-09-09T02:29:16;4.40;;;1.90;;
49860;SDS011;35761;48.826;9.238;2022-09-09T02:31:49;6.70;;;1.65;;
49860;SDS011;35761;48.826;9.238;2022-09-09T02:34:23;5.95;;;1.73;;
49860;SDS011;35761;48.826;9.238;2022-09-09T02:36:54;5.28;;;1.73;;
49860;SDS011;35761;48.826;9.238;2022-09-09T02:39:26;7.60;;;1.40;;
49860;SDS011;35761;48.826;9.238;2022-09-09T02:41:54;6.18;;;1.60;;
49860;SDS011;35761;48.826;9.238;2022-09-09T02:44:29;4.70;;;1.73;;
49860;SDS011;35761;48.826;9.238;2022-09-09T02:50:04;6.43;;;1.95;;
49860;SDS011;35761;48.826;9.238;2022-09-09T02:52:44;5.63;;;1.70;;
49860;SDS011;35761;48.826;9.238;2022-09-09T02:55:23;7.05;;;1.85;;
49860;SDS011;35761;48.826;9.238;2022-09-09T02:58:00;8.45;;;2.00;;
49860;SDS011;35761;48.826;9.238;2022-09-09T03:00:33;6.78;;;1.88;;
49860;SDS011;35761;48.826;9.238;2022-09-09T03:03:04;7.32;;;1.67;;
49860;SDS011;35761;48.826;9.238;2022-09-09T03:05:33;6.57;;;2.00;;
49860;SDS011;35761;48.826;9.238;2022-09-09T03:08:02;6.97;;;1.85;;
49860;SDS011;35761;48.826;9.238;2022-09-09T03:10:32;4.90;;;1.90;;
49860;SDS011;35761;48.826;9.238;2022-09-09T03:13:02;6.35;;;1.80;;
49860;SDS011;35761;48.826;9.238;2022-09-09T03:15:35;8.13;;;1.83;;
49860;SDS011;35761;48.826;9.238;2022-09-09T03:18:07;5.63;;;1.58;;
49860;SDS011;35761;48.826;9.238;2022-09-09T03:20:36;15.02;;;2.45;;
49860;SDS011;35761;48.826;9.238;2022-09-09T03:23:04;6.43;;;1.90;;
49860;SDS011;35761;48.826;9.238;2022-09-09T03:25:38;6.93;;;1.77;;
49860;SDS011;35761;48.826;9.238;2022-09-09T03:28:07;7.88;;;1.58;;
49860;SDS011;35761;48.826;9.238;2022-09-09T03:30:35;6.65;;;2.00;;
49860;SDS011;35761;48.826;9.238;2022-09-09T03:33:04;5.55;;;1.65;;
49860;SDS011;35761;48.826;9.238;2022-09-09T03:35:34;12.75;;;2.20;;
49860;SDS011;35761;48.826;9.238;2022-09-09T03:38:02;4.05;;;1.63;;
49860;SDS011;35761;48.826;9.238;2022-09-09T03:40:33;6.00;;;1.60;;
49860;SDS011;35761;48.826;9.238;2022-09-09T03:43:01;3.83;;;1.60;;
49860;SDS011;35761;48.826;9.238;2022-09-09T03:45:29;3.08;;;1.40;;
49860;SDS011;35761;48.826;9.238;2022-09-09T03:47:59;4.70;;;2.00;;
49860;SDS011;35761;48.826;9.238;2022-09-09T03:50:28;7.85;;;1.50;;
49860;SDS011;35761;48.826;9.238;2022-09-09T03:52:58;5.10;;;1.60;;
49860;SDS011;35761;48.826;9.238;2022-09-09T03:55:26;9.15;;;1.90;;
49860;SDS011;35761;48.826;9.238;2022-09-09T03:57:54;7.82;;;1.98;;
49860;SDS011;35761;48.826;9.238;2022-09-09T04:00:23;6.82;;;1.63;;
49860;SDS011;35761;48.826;9.238;2022-09-09T04:02:53;8.32;;;1.88;;
49860;SDS011;35761;48.826;9.238;2022-09-09T04:05:22;3.83;;;1.35;;
49860;SDS011;35761;48.826;9.238;2022-09-09T04:07:50;7.65;;;1.65;;
49860;SDS011;35761;48.826;9.238;2022-09-09T04:10:21;3.35;;;1.50;;
49860;SDS011;35761;48.826;9.238;2022-09-09T04:12:51;4.00;;;1.38;;
49860;SDS011;35761;48.826;9.238;2022-09-09T04:15:20;6.63;;;1.30;;
49860;SDS011;35761;48.826;9.238;2022-09-09T04:17:49;9.43;;;1.70;;
49860;SDS011;35761;48.826;9.238;2022-09-09T04:20:17;6.88;;;1.92;;
49860;SDS011;35761;48.826;9.238;2022-09-09T04:22:46;4.78;;;1.20;;
49860;SDS011;35761;48.826;9.238;2022-09-09T04:25:14;7.85;;;1.60;;
49860;SDS011;35761;48.826;9.238;2022-09-09T04:27:44;10.38;;;1.58;;
49860;SDS011;35761;48.826;9.238;2022-09-09T04:30:14;6.93;;;1.73;;
49860;SDS011;35761;48.826;9.238;2022-09-09T04:32:42;6.03;;;1.60;;
49860;SDS011;35761;48.826;9.238;2022-09-09T04:35:11;8.80;;;1.50;;
49860;SDS011;35761;48.826;9.238;2022-09-09T04:37:39;4.32;;;1.50;;
49860;SDS011;35761;48.826;9.238;2022-09-09T04:40:09;6.30;;;1.50;;
49860;SDS011;35761;48.826;9.238;2022-09-09T04:42:37;4.15;;;1.20;;
49860;SDS011;35761;48.826;9.238;2022-09-09T04:45:14;9.18;;;3.58;;
49860;SDS011;35761;48.826;9.238;2022-09-09T04:47:42;11.68;;;6.00;;
49860;SDS011;35761;48.826;9.238;2022-09-09T04:50:10;5.32;;;2.05;;
49860;SDS011;35761;48.826;9.238;2022-09-09T04:52:39;4.93;;;1.40;;
49860;SDS011;35761;48.826;9.238;2022-09-09T04:55:09;7.65;;;1.90;;
49860;SDS011;35761;48.826;9.238;2022-09-09T04:57:37;4.25;;;1.45;;
49860;SDS011;35761;48.826;9.238;2022-09-09T05:00:06;6.15;;;1.60;;
49860;SDS011;35761;48.826;9.238;2022-09-09T05:02:40;7.55;;;1.63;;
49860;SDS011;35761;48.826;9.238;2022-09-09T05:05:09;5.30;;;1.50;;
49860;SDS011;35761;48.826;9.238;2022-09-09T05:07:39;5.95;;;1.65;;
49860;SDS011;35761;48.826;9.238;2022-09-09T05:10:08;4.80;;;1.60;;
49860;SDS011;35761;48.826;9.238;2022-09-09T05:12:37;4.97;;;1.70;;
49860;SDS011;35761;48.826;9.238;2022-09-09T05:15:05;6.47;;;1.55;;
49860;SDS011;35761;48.826;9.238;2022-09-09T05:17:36;9.00;;;1.63;;
49860;SDS011;35761;48.826;9.238;2022-09-09T05:20:07;7.78;;;1.55;;
49860;SDS011;35761;48.826;9.238;2022-09-09T05:22:42;6.15;;;1.52;;
49860;SDS011;35761;48.826;9.238;2022-09-09T05:25:11;11.35;;;1.42;;
49860;SDS011;35761;48.826;9.238;2022-09-09T05:27:39;8.30;;;3.05;;
49860;SDS011;35761;48.826;9.238;2022-09-09T05:30:08;4.20;;;1.60;;
49860;SDS011;35761;48.826;9.238;2022-09-09T05:32:37;5.88;;;1.63;;
49860;SDS011;35761;48.826;9.238;2022-09-09T05:35:08;5.55;;;1.65;;
49860;SDS011;35761;48.826;9.238;2022-09-09T05:37:38;5.32;;;1.65;;
49860;SDS011;35761;48.826;9.238;2022-09-09T05:40:07;3.15;;;1.38;;
49860;SDS011;35761;48.826;9.238;2022-09-09T05:42:37;5.07;;;1.65;;
49860;SDS011;35761;48.826;9.238;2022-09-09T05:45:06;7.63;;;1.77;;
49860;SDS011;35761;48.826;9.238;2022-09-09T05:47:37;9.10;;;2.47;;
49860;SDS011;35761;48.826;9.238;2022-09-09T05:50:10;7.82;;;2.03;;
49860;SDS011;35761;48.826;9.238;2022-09-09T05:52:40;9.80;;;1.92;;
49860;SDS011;35761;48.826;9.238;2022-09-09T05:55:08;9.60;;;2.00;;
49860;SDS011;35761;48.826;9.238;2022-09-09T05:57:36;9.55;;;1.55;;
49860;SDS011;35761;48.826;9.238;2022-09-09T06:00:06;9.07;;;1.65;;
49860;SDS011;35761;48.826;9.238;2022-09-09T06:02:39;7.18;;;1.80;;
49860;SDS011;35761;48.826;9.238;2022-09-09T06:05:12;6.80;;;1.95;;
49860;SDS011;35761;48.826;9.238;2022-09-09T06:07:41;8.48;;;1.65;;
49860;SDS011;35761;48.826;9.238;2022-09-09T06:10:11;9.05;;;1.80;;
49860;SDS011;35761;48.826;9.238;2022-09-09T06:12:40;4.55;;;1.60;;
49860;SDS011;35761;48.826;9.238;2022-09-09T06:15:09;3.50;;;1.40;;
49860;SDS011;35761;48.826;9.238;2022-09-09T06:17:38;7.40;;;1.60;;
49860;SDS011;35761;48.826;9.238;2022-09-09T06:20:08;3.40;;;1.23;;
49860;SDS011;35761;48.826;9.238;2022-09-09T06:22:40;4.13;;;1.40;;
49860;SDS011;35761;48.826;9.238;2022-09-09T06:25:08;7.97;;;1.80;;
49860;SDS011;35761;48.826;9.238;2022-09-09T06:27:38;3.88;;;1.40;;
49860;SDS011;35761;48.826;9.238;2022-09-09T06:30:07;4.53;;;1.60;;
49860;SDS011;35761;48.826;9.238;2022-09-09T06:32:37;3.78;;;1.20;;
49860;SDS011;35761;48.826;9.238;2022-09-09T06:35:06;7.10;;;1.85;;
49860;SDS011;35761;48.826;9.238;2022-09-09T06:37:35;6.60;;;1.63;;
49860;SDS011;35761;48.826;9.238;2022-09-09T06:40:06;11.68;;;1.48;;
49860;SDS011;35761;48.826;9.238;2022-09-09T06:42:35;9.65;;;1.75;;
49860;SDS011;35761;48.826;9.238;2022-09-09T06:45:21;7.03;;;1.80;;
49860;SDS011;35761;48.826;9.238;2022-09-09T06:47:54;13.52;;;1.80;;
49860;SDS011;35761;48.826;9.238;2022-09-09T06:50:23;7.10;;;1.90;;
49860;SDS011;35761;48.826;9.238;2022-09-09T06:52:52;5.15;;;1.80;;
49860;SDS011;35761;48.826;9.238;2022-09-09T06:55:22;6.63;;;1.77;;
49860;SDS011;35761;48.826;9.238;2022-09-09T06:57:50;7.43;;;1.65;;
49860;SDS011;35761;48.826;9.238;2022-09-09T07:00:21;6.40;;;1.80;;
49860;SDS011;35761;48.826;9.238;2022-09-09T07:02:50;5.53;;;2.30;;
49860;SDS011;35761;48.826;9.238;2022-09-09T07:05:19;13.15;;;2.13;;
49860;SDS011;35761;48.826;9.238;2022-09-09T07:07:48;11.95;;;1.73;;
49860;SDS011;35761;48.826;9.238;2022-09-09T07:10:18;4.93;;;1.40;;
49860;SDS011;35761;48.826;9.238;2022-09-09T07:12:51;4.80;;;1.67;;
49860;SDS011;35761;48.826;9.238;2022-09-09T07:15:22;13.48;;;2.10;;
49860;SDS011;35761;48.826;9.238;2022-09-09T07:17:51;7.18;;;1.67;;
49860;SDS011;35761;48.826;9.238;2022-09-09T07:20:20;4.95;;;1.70;;
49860;SDS011;35761;48.826;9.238;2022-09-09T07:22:49;12.10;;;1.92;;
49860;SDS011;35761;48.826;9.238;2022-09-09T07:25:17;10.25;;;1.77;;
49860;SDS011;35761;48.826;9.238;2022-09-09T07:27:47;7.97;;;1.95;;
49860;SDS011;35761;48.826;9.238;2022-09-09T07:30:17;8.05;;;1.95;;
49860;SDS011;35761;48.826;9.238;2022-09-09T07:32:52;5.32;;;1.63;;
49860;SDS011;35761;48.826;9.238;2022-09-09T07:35:24;6.68;;;1.60;;
49860;SDS011;35761;48.826;9.238;2022-09-09T07:37:53;3.83;;;1.73;;
49860;SDS011;35761;48.826;9.238;2022-09-09T07:40:22;6.85;;;1.70;;
49860;SDS011;35761;48.826;9.238;2022-09-09T07:42:51;6.68;;;1.73;;
49860;SDS011;35761;48.826;9.238;2022-09-09T07:45:21;10.52;;;2.17;;
49860;SDS011;35761;48.826;9.238;2022-09-09T07:47:50;9.77;;;1.98;;
49860;SDS011;35761;48.826;9.238;2022-09-09T07:50:19;9.38;;;1.88;;
49860;SDS011;35761;48.826;9.238;2022-09-09T07:52:49;7.95;;;2.15;;
49860;SDS011;35761;48.826;9.238;2022-09-09T07:55:17;5.32;;;1.95;;
49860;SDS011;35761;48.826;9.238;2022-09-09T07:57:46;10.05;;;1.83;;
49860;SDS011;35761;48.826;9.238;2022-09-09T08:00:15;6.45;;;2.00;;
49860;SDS011;35761;48.826;9.238;2022-09-09T08:05:21;6.05;;;2.00;;
49860;SDS011;35761;48.826;9.238;2022-09-09T08:07:50;13.18;;;1.80;;
49860;SDS011;35761;48.826;9.238;2022-09-09T08:10:18;8.27;;;2.00;;
49860;SDS011;35761;48.826;9.238;2022-09-09T08:12:48;5.38;;;1.83;;
49860;SDS011;35761;48.826;9.238;2022-09-09T08:15:36;14.70;;;1.98;;
49860;SDS011;35761;48.826;9.238;2022-09-09T08:18:06;14.90;;;1.90;;
49860;SDS011;35761;48.826;9.238;2022-09-09T08:20:35;4.93;;;1.60;;
49860;SDS011;35761;48.826;9.238;2022-09-09T08:23:05;6.18;;;1.83;;
49860;SDS011;35761;48.826;9.238;2022-09-09T08:25:34;15.75;;;1.80;;
49860;SDS011;35761;48.826;9.238;2022-09-09T08:28:02;6.78;;;1.83;;
49860;SDS011;35761;48.826;9.238;2022-09-09T08:30:31;4.95;;;1.52;;
49860;SDS011;35761;48.826;9.238;2022-09-09T08:32:59;10.98;;;1.90;;
49860;SDS011;35761;48.826;9.238;2022-09-09T08:35:29;6.88;;;1.40;;
49860;SDS011;35761;48.826;9.238;2022-09-09T08:37:59;8.93;;;1.88;;
49860;SDS011;35761;48.826;9.238;2022-09-09T08:40:32;6.68;;;2.08;;
49860;SDS011;35761;48.826;9.238;2022-09-09T08:43:13;5.47;;;1.50;;
49860;SDS011;35761;48.826;9.238;2022-09-09T08:45:46;10.88;;;2.00;;
49860;SDS011;35761;48.826;9.238;2022-09-09T08:48:29;5.40;;;1.67;;
49860;SDS011;35761;48.826;9.238;2022-09-09T08:51:13;6.85;;;1.45;;
49860;SDS011;35761;48.826;9.238;2022-09-09T08:53:44;7.07;;;1.73;;
49860;SDS011;35761;48.826;9.238;2022-09-09T08:56:16;6.32;;;1.40;;
49860;SDS011;35761;48.826;9.238;2022-09-09T08:58:53;5.75;;;1.38;;
49860;SDS011;35761;48.826;9.238;2022-09-09T09:01:41;5.13;;;1.38;;
49860;SDS011;35761;48.826;9.238;2022-09-09T09:07:21;6.75;;;1.30;;
49860;SDS011;35761;48.826;9.238;2022-09-09T09:10:05;5.32;;;1.63;;
49860;SDS011;35761;48.826;9.238;2022-09-09T09:13:07;3.67;;;1.20;;
49860;SDS011;35761;48.826;9.238;2022-09-09T09:15:45;1.98;;;1.00;;
49860;SDS011;35761;48.826;9.238;2022-09-09T09:18:18;6.35;;;1.65;;
49860;SDS011;35761;48.826;9.238;2022-09-09T09:20:50;5.68;;;1.42;;
49860;SDS011;35761;48.826;9.238;2022-09-09T09:23:29;6.30;;;1.13;;
49860;SDS011;35761;48.826;9.238;2022-09-09T09:26:09;6.20;;;1.25;;
49860;SDS011;35761;48.826;9.238;2022-09-09T09:28:39;6.47;;;1.48;;
49860;SDS011;35761;48.826;9.238;2022-09-09T09:31:13;8.73;;;1.40;;
49860;SDS011;35761;48.826;9.238;2022-09-09T09:33:46;3.30;;;1.20;;
49860;SDS011;35761;48.826;9.238;2022-09-09T09:36:23;4.32;;;1.20;;
49860;SDS011;35761;48.826;9.238;2022-09-09T09:39:05;5.00;;;1.45;;
49860;SDS011;35761;48.826;9.238;2022-09-09T09:41:56;8.18;;;1.30;;
49860;SDS011;35761;48.826;9.238;2022-09-09T09:44:32;3.65;;;1.10;;
49860;SDS011;35761;48.826;9.238;2022-09-09T09:47:11;4.72;;;1.42;;
49860;SDS011;35761;48.826;9.238;2022-09-09T09:49:51;4.07;;;1.20;;
49860;SDS011;35761;48.826;9.238;2022-09-09T09:52:21;4.72;;;1.20;;
49860;SDS011;35761;48.826;9.238;2022-09-09T09:54:53;3.47;;;0.90;;
49860;SDS011;35761;48.826;9.238;2022-09-09T09:57:31;3.53;;;0.93;;
49860;SDS011;35761;48.826;9.238;2022-09-09T10:00:11;2.97;;;1.02;;
49860;SDS011;35761;48.826;9.238;2022-09-09T10:02:48;3.03;;;0.97;;
49860;SDS011;35761;48.826;9.238;2022-09-09T10:05:23;5.65;;;1.70;;
49860;SDS011;35761;48.826;9.238;2022-09-09T10:08:09;4.38;;;1.00;;
49860;SDS011;35761;48.826;9.238;2022-09-09T10:10:53;1.98;;;0.70;;
49860;SDS011;35761;48.826;9.238;2022-09-09T10:13:47;2.85;;;0.98;;
49860;SDS011;35761;48.826;9.238;2022-09-09T10:16:27;5.22;;;1.02;;
49860;SDS011;35761;48.826;9.238;2022-09-09T10:19:09;3.85;;;1.15;;
49860;SDS011;35761;48.826;9.238;2022-09-09T10:24:49;4.32;;;1.50;;
49860;SDS011;35761;48.826;9.238;2022-09-09T10:27:59;4.50;;;1.10;;
49860;SDS011;35761;48.826;9.238;2022-09-09T10:30:55;3.65;;;1.17;;
49860;SDS011;35761;48.826;9.238;2022-09-09T10:33:37;7.40;;;1.40;;
49860;SDS011;35761;48.826;9.238;2022-09-09T10:36:17;3.45;;;1.00;;
49860;SDS011;35761;48.826;9.238;2022-09-09T10:38:52;4.40;;;1.05;;
49860;SDS011;35761;48.826;9.238;2022-09-09T10:41:33;4.63;;;1.13;;
49860;SDS011;35761;48.826;9.238;2022-09-09T10:44:17;3.72;;;1.27;;
49860;SDS011;35761;48.826;9.238;2022-09-09T10:46:58;5.53;;;1.48;;
49860;SDS011;35761;48.826;9.238;2022-09-09T10:50:00;4.70;;;1.50;;
49860;SDS011;35761;48.826;9.238;2022-09-09T10:52:47;7.95;;;1.77;;
49860;SDS011;35761;48.826;9.238;2022-09-09T10:55:30;3.53;;;1.13;;
49860;SDS011;35761;48.826;9.238;2022-09-09T10:58:05;4.35;;;1.05;;
49860;SDS011;35761;48.826;9.238;2022-09-09T11:00:40;5.65;;;1.50;;
49860;SDS011;35761;48.826;9.238;2022-09-09T11:03:15;4.15;;;1.38;;
49860;SDS011;35761;48.826;9.238;2022-09-09T11:05:51;4.50;;;1.45;;
49860;SDS011;35761;48.826;9.238;2022-09-09T11:08:26;5.20;;;1.30;;
49860;SDS011;35761;48.826;9.238;2022-09-09T11:10:58;6.93;;;1.40;;
49860;SDS011;35761;48.826;9.238;2022-09-09T11:13:32;7.32;;;1.48;;
49860;SDS011;35761;48.826;9.238;2022-09-09T11:16:14;5.32;;;1.30;;
49860;SDS011;35761;48.826;9.238;2022-09-09T11:18:50;2.58;;;1.25;;
49860;SDS011;35761;48.826;9.238;2022-09-09T11:21:27;3.47;;;1.13;;
49860;SDS011;35761;48.826;9.238;2022-09-09T11:23:59;4.32;;;1.27;;
49860;SDS011;35761;48.826;9.238;2022-09-09T11:26:33;5.47;;;1.60;;
49860;SDS011;35761;48.826;9.238;2022-09-09T11:29:12;6.22;;;1.80;;
49860;SDS011;35761;48.826;9.238;2022-09-09T11:32:06;5.68;;;1.33;;
49860;SDS011;35761;48.826;9.238;2022-09-09T11:34:53;5.70;;;1.23;;
49860;SDS011;35761;48.826;9.238;2022-09-09T11:37:44;12.90;;;1.55;;
49860;SDS011;35761;48.826;9.238;2022-09-09T11:40:30;4.20;;;1.20;;
49860;SDS011;35761;48.826;9.238;2022-09-09T11:43:02;12.00;;;1.17;;
49860;SDS011;35761;48.826;9.238;2022-09-09T11:45:33;5.20;;;1.10;;
49860;SDS011;35761;48.826;9.238;2022-09-09T11:48:04;4.47;;;1.15;;
49860;SDS011;35761;48.826;9.238;2022-09-09T11:50:59;9.25;;;0.93;;
49860;SDS011;35761;48.826;9.238;2022-09-09T11:53:47;5.47;;;1.10;;
49860;SDS011;35761;48.826;9.238;2022-09-09T11:56:24;12.07;;;1.00;;
49860;SDS011;35761;48.826;9.238;2022-09-09T11:58:58;4.00;;;0.95;;
49860;SDS011;35761;48.826;9.238;2022-09-09T12:04:16;3.00;;;0.88;;
49860;SDS011;35761;48.826;9.238;2022-09-09T12:06:56;3.67;;;0.90;;
49860;SDS011;35761;48.826;9.238;2022-09-09T12:09:30;2.40;;;0.77;;
49860;SDS011;35761;48.826;9.238;2022-09-09T12:12:21;4.72;;;0.85;;
49860;SDS011;35761;48.826;9.238;2022-09-09T12:14:59;5.15;;;0.77;;
49860;SDS011;35761;48.826;9.238;2022-09-09T12:17:47;1.13;;;0.50;;
49860;SDS011;35761;48.826;9.238;2022-09-09T12:20:19;2.60;;;0.82;;
49860;SDS011;35761;48.826;9.238;2022-09-09T12:22:52;1.80;;;0.60;;
49860;SDS011;35761;48.826;9.238;2022-09-09T12:25:53;1.40;;;0.50;;
49860;SDS011;35761;48.826;9.238;2022-09-09T12:28:40;1.52;;;0.47;;
49860;SDS011;35761;48.826;9.238;2022-09-09T12:31:21;3.53;;;0.70;;
49860;SDS011;35761;48.826;9.238;2022-09-09T12:34:02;3.90;;;0.75;;
49860;SDS011;35761;48.826;9.238;2022-09-09T12:36:39;2.08;;;0.47;;
49860;SDS011;35761;48.826;9.238;2022-09-09T12:39:17;2.70;;;0.70;;
49860;SDS011;35761;48.826;9.238;2022-09-09T12:44:23;2.35;;;0.80;;
49860;SDS011;35761;48.826;9.238;2022-09-09T12:46:54;3.30;;;0.77;;
49860;SDS011;35761;48.826;9.238;2022-09-09T12:49:28;4.20;;;0.77;;
49860;SDS011;35761;48.826;9.238;2022-09-09T12:52:03;2.47;;;1.00;;
49860;SDS011;35761;48.826;9.238;2022-09-09T12:54:34;2.75;;;1.55;;
49860;SDS011;35761;48.826;9.238;2022-09-09T12:57:04;5.55;;;1.00;;
49860;SDS011;35761;48.826;9.238;2022-09-09T12:59:37;4.90;;;0.77;;
49860;SDS011;35761;48.826;9.238;2022-09-09T13:02:17;2.55;;;0.70;;
49860;SDS011;35761;48.826;9.238;2022-09-09T13:04:48;2.97;;;0.90;;
49860;SDS011;35761;48.826;9.238;2022-09-09T13:07:19;3.20;;;0.82;;
49860;SDS011;35761;48.826;9.238;2022-09-09T13:09:49;3.78;;;0.82;;
49860;SDS011;35761;48.826;9.238;2022-09-09T13:12:18;4.90;;;1.27;;
49860;SDS011;35761;48.826;9.238;2022-09-09T13:14:50;4.28;;;2.05;;
49860;SDS011;35761;48.826;9.238;2022-09-09T13:17:23;6.75;;;1.00;;
49860;SDS011;35761;48.826;9.238;2022-09-09T13:19:55;1.35;;;0.60;;
49860;SDS011;35761;48.826;9.238;2022-09-09T13:22:28;3.50;;;1.25;;
49860;SDS011;35761;48.826;9.238;2022-09-09T13:25:00;2.72;;;0.98;;
49860;SDS011;35761;48.826;9.238;2022-09-09T13:27:33;3.30;;;0.93;;
49860;SDS011;35761;48.826;9.238;2022-09-09T13:30:19;1.95;;;0.70;;
49860;SDS011;35761;48.826;9.238;2022-09-09T13:33:04;7.35;;;1.27;;
49860;SDS011;35761;48.826;9.238;2022-09-09T13:35:48;2.72;;;0.73;;
49860;SDS011;35761;48.826;9.238;2022-09-09T13:38:22;5.70;;;1.35;;
49860;SDS011;35761;48.826;9.238;2022-09-09T13:40:56;1.40;;;0.55;;
49860;SDS011;35761;48.826;9.238;2022-09-09T13:43:31;2.05;;;0.80;;
49860;SDS011;35761;48.826;9.238;2022-09-09T13:46:05;5.68;;;0.90;;
49860;SDS011;35761;48.826;9.238;2022-09-09T13:48:53;4.43;;;1.05;;
49860;SDS011;35761;48.826;9.238;2022-09-09T13:51:28;2.17;;;0.63;;
49860;SDS011;35761;48.826;9.238;2022-09-09T13:54:05;2.33;;;0.80;;
49860;SDS011;35761;48.826;9.238;2022-09-09T13:56:37;2.08;;;0.93;;
49860;SDS011;35761;48.826;9.238;2022-09-09T13:59:09;10.15;;;1.27;;
49860;SDS011;35761;48.826;9.238;2022-09-09T14:01:40;2.97;;;0.77;;
49860;SDS011;35761;48.826;9.238;2022-09-09T14:04:08;3.08;;;0.95;;
49860;SDS011;35761;48.826;9.238;2022-09-09T14:06:38;4.13;;;1.00;;
49860;SDS011;35761;48.826;9.238;2022-09-09T14:09:10;5.78;;;0.90;;
49860;SDS011;35761;48.826;9.238;2022-09-09T14:11:42;3.33;;;0.82;;
49860;SDS011;35761;48.826;9.238;2022-09-09T14:14:11;4.28;;;0.88;;
49860;SDS011;35761;48.826;9.238;2022-09-09T14:16:40;4.30;;;1.30;;
49860;SDS011;35761;48.826;9.238;2022-09-09T14:19:11;4.68;;;0.80;;
49860;SDS011;35761;48.826;9.238;2022-09-09T14:21:40;5.35;;;0.93;;
49860;SDS011;35761;48.826;9.238;2022-09-09T14:24:10;5.40;;;1.10;;
49860;SDS011;35761;48.826;9.238;2022-09-09T14:26:38;1.95;;;0.75;;
49860;SDS011;35761;48.826;9.238;2022-09-09T14:29:07;2.30;;;0.80;;
49860;SDS011;35761;48.826;9.238;2022-09-09T14:31:35;1.63;;;0.63;;
49860;SDS011;35761;48.826;9.238;2022-09-09T14:34:03;2.42;;;0.73;;
49860;SDS011;35761;48.826;9.238;2022-09-09T14:36:32;2.92;;;0.80;;
49860;SDS011;35761;48.826;9.238;2022-09-09T14:39:00;3.08;;;0.77;;
49860;SDS011;35761;48.826;9.238;2022-09-09T14:41:30;3.55;;;0.85;;
49860;SDS011;35761;48.826;9.238;2022-09-09T14:43:59;4.00;;;0.85;;
49860;SDS011;35761;48.826;9.238;2022-09-09T14:46:27;3.15;;;0.80;;
49860;SDS011;35761;48.826;9.238;2022-09-09T14:48:55;4.20;;;0.98;;
49860;SDS011;35761;48.826;9.238;2022-09-09T14:51:24;5.18;;;1.00;;
49860;SDS011;35761;48.826;9.238;2022-09-09T14:53:55;3.90;;;0.80;;
49860;SDS011;35761;48.826;9.238;2022-09-09T14:56:26;6.47;;;0.98;;
49860;SDS011;35761;48.826;9.238;2022-09-09T14:58:58;2.95;;;0.80;;
49860;SDS011;35761;48.826;9.238;2022-09-09T15:01:28;5.70;;;1.08;;
49860;SDS011;35761;48.826;9.238;2022-09-09T15:03:58;4.25;;;1.65;;
49860;SDS011;35761;48.826;9.238;2022-09-09T15:06:30;1.67;;;0.70;;
49860;SDS011;35761;48.826;9.238;2022-09-09T15:09:00;2.33;;;0.85;;
49860;SDS011;35761;48.826;9.238;2022-09-09T15:11:30;1.73;;;0.70;;
49860;SDS011;35761;48.826;9.238;2022-09-09T15:14:05;3.42;;;0.77;;
49860;SDS011;35761;48.826;9.238;2022-09-09T15:16:35;3.78;;;0.90;;
49860;SDS011;35761;48.826;9.238;2022-09-09T15:19:04;3.35;;;1.10;;
49860;SDS011;35761;48.826;9.238;2022-09-09T15:21:33;3.75;;;0.90;;
49860;SDS011;35761;48.826;9.238;2022-09-09T15:24:03;2.95;;;1.00;;
49860;SDS011;35761;48.826;9.238;2022-09-09T15:26:34;6.45;;;1.55;;
49860;SDS011;35761;48.826;9.238;2022-09-09T15:29:06;3.42;;;1.00;;
49860;SDS011;35761;48.826;9.238;2022-09-09T15:31:35;3.03;;;1.00;;
49860;SDS011;35761;48.826;9.238;2022-09-09T15:34:05;2.90;;;0.88;;
49860;SDS011;35761;48.826;9.238;2022-09-09T15:36:35;1.15;;;0.68;;
49860;SDS011;35761;48.826;9.238;2022-09-09T15:39:05;2.47;;;0.75;;
49860;SDS011;35761;48.826;9.238;2022-09-09T15:41:36;4.75;;;0.75;;
49860;SDS011;35761;48.826;9.238;2022-09-09T15:44:05;3.78;;;1.00;;
49860;SDS011;35761;48.826;9.238;2022-09-09T15:46:34;2.75;;;0.95;;